sensor_id;sensor_type;location;lat;lon;timestamp;pressure;altitude;pressure_sealevel;temperature;humidity
21111;BME280;10713;51.912;4.494;2022-12-16T00:01:14;100989.56;;;3.46;100.00
21111;BME280;10713;51.912;4.494;2022-12-16T00:03:40;100993.13;;;3.41;100.00
21111;BME280;10713;51.912;4.494;2022-12-16T00:06:08;101000.94;;;3.39;100.00
21111;BME280;10713;51.912;4.494;2022-12-16T00:08:37;101002.66;;;3.42;100.00
21111;BME280;10713;51.912;4.494;2022-12-16T00:11:03;101000.13;;;3.32;100.00
21111;BME280;10713;51.912;4.494;2022-12-16T00:13:30;101010.59;;;3.29;100.00
21111;BME280;10713;51.912;4.494;2022-12-16T00:15:56;101014.13;;;3.24;100.00
21111;BME280;10713;51.912;4.494;2022-12-16T00:18:21;101019.34;;;3.19;100.00
21111;BME280;10713;51.912;4.494;2022-12-16T00:20:50;101026.25;;;3.23;100.00
21111;BME280;10713;51.912;4.494;2022-12-16T00:23:16;101021.91;;;3.25;100.00
21111;BME280;10713;51.912;4.494;2022-12-16T00:25:43;101021.94;;;3.22;100.00
21111;BME280;10713;51.912;4.494;2022-12-16T00:28:09;101021.97;;;3.21;100.00
21111;BME280;10713;51.912;4.494;2022-12-16T00:30:35;101020.19;;;3.20;100.00
21111;BME280;10713;51.912;4.494;2022-12-16T00:33:00;101017.59;;;3.21;100.00
21111;BME280;10713;51.912;4.494;2022-12-16T00:35:26;101017.56;;;3.24;100.00
21111;BME280;10713;51.912;4.494;2022-12-16T00:37:51;101034.06;;;3.28;100.00
21111;BME280;10713;51.912;4.494;2022-12-16T00:40:16;101027.16;;;3.24;100.00
21111;BME280;10713;51.912;4.494;2022-12-16T00:42:42;101031.47;;;3.23;100.00
21111;BME280;10713;51.912;4.494;2022-12-16T00:45:07;101041.91;;;3.28;100.00
21111;BME280;10713;51.912;4.494;2022-12-16T00:47:33;101033.22;;;3.23;100.00
21111;BME280;10713;51.912;4.494;2022-12-16T00:49:58;101048.03;;;3.21;100.00
21111;BME280;10713;51.912;4.494;2022-12-16T00:52:23;101042.81;;;3.21;100.00
21111;BME280;10713;51.912;4.494;2022-12-16T00:54:48;101040.16;;;3.28;100.00
21111;BME280;10713;51.912;4.494;2022-12-16T00:57:14;101048.84;;;3.35;100.00
21111;BME280;10713;51.912;4.494;2022-12-16T00:59:39;101051.38;;;3.43;100.00
21111;BME280;10713;51.912;4.494;2022-12-16T01:02:04;101055.63;;;3.54;100.00
21111;BME280;10713;51.912;4.494;2022-12-16T01:04:30;101051.31;;;3.55;100.00
21111;BME280;10713;51.912;4.494;2022-12-16T01:06:55;101055.63;;;3.57;100.00
21111;BME280;10713;51.912;4.494;2022-12-16T01:09:20;101059.97;;;3.58;100.00
21111;BME280;10713;51.912;4.494;2022-12-16T01:11:46;101059.91;;;3.63;100.00
21111;BME280;10713;51.912;4.494;2022-12-16T01:14:11;101054.78;;;3.55;100.00
21111;BME280;10713;51.912;4.494;2022-12-16T01:16:37;101055.66;;;3.53;100.00
21111;BME280;10713;51.912;4.494;2022-12-16T01:19:02;101047.84;;;3.50;100.00
21111;BME280;10713;51.912;4.494;2022-12-16T01:21:28;101054.81;;;3.46;100.00
21111;BME280;10713;51.912;4.494;2022-12-16T01:23:53;101066.16;;;3.42;100.00
21111;BME280;10713;51.912;4.494;2022-12-16T01:26:18;101062.78;;;3.29;100.00
21111;BME280;10713;51.912;4.494;2022-12-16T01:28:46;101071.41;;;3.37;100.00
21111;BME280;10713;51.912;4.494;2022-12-16T01:31:14;101076.66;;;3.33;100.00
21111;BME280;10713;51.912;4.494;2022-12-16T01:33:40;101080.16;;;3.26;100.00
21111;BME280;10713;51.912;4.494;2022-12-16T01:36:07;101086.25;;;3.23;100.00
21111;BME280;10713;51.912;4.494;2022-12-16T01:38:33;101087.16;;;3.17;100.00
21111;BME280;10713;51.912;4.494;2022-12-16T01:41:00;101097.59;;;3.17;100.00
21111;BME280;10713;51.912;4.494;2022-12-16T01:43:31;101100.22;;;3.21;100.00
21111;BME280;10713;51.912;4.494;2022-12-16T01:46:04;101102.00;;;3.12;100.00
21111;BME280;10713;51.912;4.494;2022-12-16T01:48:39;101102.84;;;3.13;100.00
21111;BME280;10713;51.912;4.494;2022-12-16T01:54:05;101109.78;;;3.14;100.00
21111;BME280;10713;51.912;4.494;2022-12-16T01:56:32;101116.78;;;3.07;100.00
21111;BME280;10713;51.912;4.494;2022-12-16T01:58:59;101112.44;;;3.05;100.00
21111;BME280;10713;51.912;4.494;2022-12-16T02:01:26;101120.28;;;3.06;100.00
21111;BME280;10713;51.912;4.494;2022-12-16T02:03:53;101122.00;;;3.03;100.00
21111;BME280;10713;51.912;4.494;2022-12-16T02:06:21;101121.16;;;3.02;100.00
21111;BME280;10713;51.912;4.494;2022-12-16T02:08:50;101120.31;;;2.94;100.00
21111;BME280;10713;51.912;4.494;2022-12-16T02:11:28;101123.78;;;2.94;100.00
21111;BME280;10713;51.912;4.494;2022-12-16T02:14:03;101130.78;;;2.89;100.00
21111;BME280;10713;51.912;4.494;2022-12-16T02:31:07;101133.38;;;2.89;100.00
21111;BME280;10713;51.912;4.494;2022-12-16T02:36:10;101134.25;;;2.84;100.00
21111;BME280;10713;51.912;4.494;2022-12-16T02:43:56;101139.47;;;2.79;100.00
21111;BME280;10713;51.912;4.494;2022-12-16T02:46:26;101142.09;;;2.78;100.00
21111;BME280;10713;51.912;4.494;2022-12-16T02:48:52;101143.81;;;2.77;100.00
21111;BME280;10713;51.912;4.494;2022-12-16T02:51:18;101136.88;;;2.79;100.00
21111;BME280;10713;51.912;4.494;2022-12-16T02:53:45;101147.31;;;2.78;100.00
21111;BME280;10713;51.912;4.494;2022-12-16T03:06:49;101159.47;;;2.79;100.00
21111;BME280;10713;51.912;4.494;2022-12-16T03:09:30;101162.94;;;2.76;100.00
21111;BME280;10713;51.912;4.494;2022-12-16T03:11:56;101175.13;;;2.76;100.00
21111;BME280;10713;51.912;4.494;2022-12-16T03:14:26;101171.66;;;2.75;100.00
21111;BME280;10713;51.912;4.494;2022-12-16T03:16:53;101173.38;;;2.71;100.00
21111;BME280;10713;51.912;4.494;2022-12-16T03:19:20;101182.94;;;2.76;100.00
21111;BME280;10713;51.912;4.494;2022-12-16T03:21:54;101170.78;;;2.71;100.00
21111;BME280;10713;51.912;4.494;2022-12-16T03:24:24;101187.31;;;2.69;100.00
21111;BME280;10713;51.912;4.494;2022-12-16T03:27:00;101184.69;;;2.64;100.00
21111;BME280;10713;51.912;4.494;2022-12-16T03:29:39;101192.53;;;2.58;100.00
21111;BME280;10713;51.912;4.494;2022-12-16T03:32:12;101199.47;;;2.58;100.00
21111;BME280;10713;51.912;4.494;2022-12-16T03:37:08;101196.88;;;2.53;100.00
21111;BME280;10713;51.912;4.494;2022-12-16T03:39:47;101204.66;;;2.55;100.00
21111;BME280;10713;51.912;4.494;2022-12-16T03:42:14;101207.28;;;2.56;100.00
21111;BME280;10713;51.912;4.494;2022-12-16T03:44:43;101206.41;;;2.60;100.00
21111;BME280;10713;51.912;4.494;2022-12-16T03:47:10;101221.19;;;2.61;100.00
21111;BME280;10713;51.912;4.494;2022-12-16T03:49:35;101208.16;;;2.55;100.00
21111;BME280;10713;51.912;4.494;2022-12-16T03:52:01;101214.25;;;2.53;100.00
21111;BME280;10713;51.912;4.494;2022-12-16T03:54:26;101216.84;;;2.50;100.00
21111;BME280;10713;51.912;4.494;2022-12-16T03:56:52;101216.84;;;2.53;100.00
21111;BME280;10713;51.912;4.494;2022-12-16T03:59:18;101209.91;;;2.50;100.00
21111;BME280;10713;51.912;4.494;2022-12-16T04:01:43;101208.16;;;2.44;100.00
21111;BME280;10713;51.912;4.494;2022-12-16T04:04:09;101215.13;;;2.44;100.00
21111;BME280;10713;51.912;4.494;2022-12-16T04:06:34;101217.72;;;2.42;100.00
21111;BME280;10713;51.912;4.494;2022-12-16T04:08:59;101220.34;;;2.44;100.00
21111;BME280;10713;51.912;4.494;2022-12-16T04:11:25;101222.94;;;2.44;100.00
21111;BME280;10713;51.912;4.494;2022-12-16T04:14:09;101222.06;;;2.46;100.00
21111;BME280;10713;51.912;4.494;2022-12-16T04:16:53;101226.38;;;2.40;100.00
21111;BME280;10713;51.912;4.494;2022-12-16T04:19:37;101228.16;;;2.41;100.00
21111;BME280;10713;51.912;4.494;2022-12-16T04:22:28;101222.94;;;2.47;100.00
21111;BME280;10713;51.912;4.494;2022-12-16T04:25:20;101222.94;;;2.47;100.00
21111;BME280;10713;51.912;4.494;2022-12-16T04:27:46;101233.38;;;2.35;100.00
21111;BME280;10713;51.912;4.494;2022-12-16T04:30:13;101229.88;;;2.42;100.00
21111;BME280;10713;51.912;4.494;2022-12-16T04:33:00;101242.91;;;2.42;100.00
21111;BME280;10713;51.912;4.494;2022-12-16T04:35:45;101250.72;;;2.36;100.00
21111;BME280;10713;51.912;4.494;2022-12-16T04:38:29;101251.59;;;2.33;100.00
21111;BME280;10713;51.912;4.494;2022-12-16T04:41:13;101253.31;;;2.34;100.00
21111;BME280;10713;51.912;4.494;2022-12-16T04:43:57;101260.25;;;2.28;100.00
21111;BME280;10713;51.912;4.494;2022-12-16T04:46:41;101257.66;;;2.31;100.00
21111;BME280;10713;51.912;4.494;2022-12-16T04:49:25;101261.97;;;2.25;100.00
21111;BME280;10713;51.912;4.494;2022-12-16T04:52:09;101261.09;;;2.16;100.00
21111;BME280;10713;51.912;4.494;2022-12-16T04:54:53;101268.94;;;2.19;100.00
21111;BME280;10713;51.912;4.494;2022-12-16T04:57:37;101265.44;;;2.17;100.00
21111;BME280;10713;51.912;4.494;2022-12-16T05:00:21;101272.41;;;2.15;100.00
21111;BME280;10713;51.912;4.494;2022-12-16T05:03:05;101261.97;;;2.16;100.00
21111;BME280;10713;51.912;4.494;2022-12-16T05:05:49;101264.56;;;2.09;100.00
21111;BME280;10713;51.912;4.494;2022-12-16T05:08:33;101264.56;;;2.12;100.00
21111;BME280;10713;51.912;4.494;2022-12-16T05:11:17;101271.53;;;2.10;100.00
21111;BME280;10713;51.912;4.494;2022-12-16T05:14:01;101275.88;;;2.09;100.00
21111;BME280;10713;51.912;4.494;2022-12-16T05:16:45;101261.94;;;2.04;100.00
21111;BME280;10713;51.912;4.494;2022-12-16T05:19:29;101273.22;;;2.01;100.00
21111;BME280;10713;51.912;4.494;2022-12-16T05:22:13;101268.03;;;2.01;100.00
21111;BME280;10713;51.912;4.494;2022-12-16T05:24:57;101275.81;;;2.00;100.00
21111;BME280;10713;51.912;4.494;2022-12-16T05:27:41;101280.16;;;1.96;100.00
21111;BME280;10713;51.912;4.494;2022-12-16T05:30:25;101286.22;;;1.91;100.00
21111;BME280;10713;51.912;4.494;2022-12-16T05:33:09;101286.22;;;1.91;100.00
21111;BME280;10713;51.912;4.494;2022-12-16T05:35:53;101287.94;;;1.93;100.00
21111;BME280;10713;51.912;4.494;2022-12-16T05:38:37;101292.28;;;1.91;100.00
21111;BME280;10713;51.912;4.494;2022-12-16T05:41:21;101299.22;;;1.91;100.00
21111;BME280;10713;51.912;4.494;2022-12-16T05:44:05;101300.09;;;1.90;100.00
21111;BME280;10713;51.912;4.494;2022-12-16T05:46:48;101311.38;;;1.87;100.00
21111;BME280;10713;51.912;4.494;2022-12-16T05:49:32;101310.47;;;1.82;100.00
21111;BME280;10713;51.912;4.494;2022-12-16T05:52:16;101308.75;;;1.87;100.00
21111;BME280;10713;51.912;4.494;2022-12-16T05:55:00;101326.13;;;1.84;100.00
21111;BME280;10713;51.912;4.494;2022-12-16T05:57:48;101331.31;;;1.85;100.00
21111;BME280;10713;51.912;4.494;2022-12-16T06:00:31;101326.97;;;1.78;100.00
21111;BME280;10713;51.912;4.494;2022-12-16T06:03:15;101332.13;;;1.76;100.00
21111;BME280;10713;51.912;4.494;2022-12-16T06:05:59;101333.88;;;1.79;100.00
21111;BME280;10713;51.912;4.494;2022-12-16T06:08:43;101329.56;;;1.79;100.00
21111;BME280;10713;51.912;4.494;2022-12-16T06:11:27;101329.56;;;1.81;100.00
21111;BME280;10713;51.912;4.494;2022-12-16T06:14:11;101330.44;;;1.83;100.00
21111;BME280;10713;51.912;4.494;2022-12-16T06:16:55;101328.72;;;1.84;100.00
21111;BME280;10713;51.912;4.494;2022-12-16T06:19:39;101331.31;;;1.82;100.00
21111;BME280;10713;51.912;4.494;2022-12-16T06:22:23;101326.09;;;1.80;100.00
21111;BME280;10713;51.912;4.494;2022-12-16T06:25:07;101336.53;;;1.84;100.00
21111;BME280;10713;51.912;4.494;2022-12-16T06:27:52;101340.00;;;1.84;100.00
21111;BME280;10713;51.912;4.494;2022-12-16T06:30:36;101332.19;;;1.89;100.00
21111;BME280;10713;51.912;4.494;2022-12-16T06:33:20;101336.56;;;1.96;100.00
21111;BME280;10713;51.912;4.494;2022-12-16T06:36:04;101338.34;;;2.01;100.00
21111;BME280;10713;51.912;4.494;2022-12-16T06:38:50;101354.81;;;2.05;100.00
21111;BME280;10713;51.912;4.494;2022-12-16T06:41:34;101353.13;;;2.10;100.00
21111;BME280;10713;51.912;4.494;2022-12-16T06:44:18;101357.50;;;2.19;100.00
21111;BME280;10713;51.912;4.494;2022-12-16T06:47:02;101352.28;;;2.19;100.00
21111;BME280;10713;51.912;4.494;2022-12-16T06:49:46;101359.22;;;2.20;100.00
21111;BME280;10713;51.912;4.494;2022-12-16T06:52:29;101367.94;;;2.20;100.00
21111;BME280;10713;51.912;4.494;2022-12-16T06:55:13;101371.41;;;2.24;100.00
21111;BME280;10713;51.912;4.494;2022-12-16T06:57:58;101371.41;;;2.27;100.00
21111;BME280;10713;51.912;4.494;2022-12-16T07:00:42;101374.91;;;2.32;100.00
21111;BME280;10713;51.912;4.494;2022-12-16T07:03:25;101374.94;;;2.41;100.00
21111;BME280;10713;51.912;4.494;2022-12-16T07:06:09;101371.47;;;2.44;100.00
21111;BME280;10713;51.912;4.494;2022-12-16T07:08:53;101385.34;;;2.46;100.00
21111;BME280;10713;51.912;4.494;2022-12-16T07:11:37;101385.38;;;2.47;100.00
21111;BME280;10713;51.912;4.494;2022-12-16T07:14:21;101386.22;;;2.48;100.00
21111;BME280;10713;51.912;4.494;2022-12-16T07:17:05;101397.53;;;2.53;100.00
21111;BME280;10713;51.912;4.494;2022-12-16T07:19:49;101394.06;;;2.51;100.00
21111;BME280;10713;51.912;4.494;2022-12-16T07:22:33;101403.63;;;2.57;100.00
21111;BME280;10713;51.912;4.494;2022-12-16T07:25:17;101407.97;;;2.62;100.00
21111;BME280;10713;51.912;4.494;2022-12-16T07:28:01;101412.34;;;2.66;100.00
21111;BME280;10713;51.912;4.494;2022-12-16T07:30:45;101410.63;;;2.70;100.00
21111;BME280;10713;51.912;4.494;2022-12-16T07:33:29;101428.84;;;2.71;100.00
21111;BME280;10713;51.912;4.494;2022-12-16T07:36:13;101431.44;;;2.68;100.00
21111;BME280;10713;51.912;4.494;2022-12-16T07:38:57;101433.22;;;2.66;100.00
21111;BME280;10713;51.912;4.494;2022-12-16T07:41:41;101430.59;;;2.68;100.00
21111;BME280;10713;51.912;4.494;2022-12-16T07:44:25;101439.28;;;2.68;100.00
21111;BME280;10713;51.912;4.494;2022-12-16T07:47:08;101443.63;;;2.74;100.00
21111;BME280;10713;51.912;4.494;2022-12-16T07:49:52;101442.78;;;2.78;100.00
21111;BME280;10713;51.912;4.494;2022-12-16T07:52:36;101448.00;;;2.78;100.00
21111;BME280;10713;51.912;4.494;2022-12-16T07:55:20;101450.59;;;2.80;100.00
21111;BME280;10713;51.912;4.494;2022-12-16T07:58:04;101464.53;;;2.82;100.00
21111;BME280;10713;51.912;4.494;2022-12-16T08:00:48;101462.81;;;2.84;100.00
21111;BME280;10713;51.912;4.494;2022-12-16T08:03:32;101473.22;;;2.84;100.00
21111;BME280;10713;51.912;4.494;2022-12-16T08:06:16;101479.31;;;2.90;100.00
21111;BME280;10713;51.912;4.494;2022-12-16T08:08:59;101479.31;;;2.93;100.00
21111;BME280;10713;51.912;4.494;2022-12-16T08:11:43;101478.47;;;2.93;100.00
21111;BME280;10713;51.912;4.494;2022-12-16T08:14:27;101477.63;;;3.02;100.00
21111;BME280;10713;51.912;4.494;2022-12-16T08:17:11;101478.50;;;3.16;100.00
21111;BME280;10713;51.912;4.494;2022-12-16T08:19:55;101478.50;;;3.79;100.00
21111;BME280;10713;51.912;4.494;2022-12-16T08:22:39;101482.56;;;4.78;100.00
21111;BME280;10713;51.912;4.494;2022-12-16T08:25:23;101468.75;;;5.76;100.00
21111;BME280;10713;51.912;4.494;2022-12-16T08:28:07;101458.44;;;6.44;100.00
21111;BME280;10713;51.912;4.494;2022-12-16T08:30:51;101459.41;;;7.00;100.00
21111;BME280;10713;51.912;4.494;2022-12-16T08:33:35;101456.69;;;7.61;100.00
21111;BME280;10713;51.912;4.494;2022-12-16T08:36:23;101457.75;;;8.02;100.00
21111;BME280;10713;51.912;4.494;2022-12-16T08:39:07;101454.53;;;8.31;100.00
21111;BME280;10713;51.912;4.494;2022-12-16T08:41:51;101465.97;;;8.30;100.00
21111;BME280;10713;51.912;4.494;2022-12-16T08:44:35;101462.47;;;8.73;100.00
21111;BME280;10713;51.912;4.494;2022-12-16T08:47:19;101457.41;;;9.40;100.00
21111;BME280;10713;51.912;4.494;2022-12-16T08:50:04;101458.16;;;10.12;100.00
21111;BME280;10713;51.912;4.494;2022-12-16T08:52:48;101458.53;;;10.62;100.00
21111;BME280;10713;51.912;4.494;2022-12-16T08:55:32;101457.44;;;10.99;100.00
21111;BME280;10713;51.912;4.494;2022-12-16T08:58:16;101464.94;;;11.39;100.00
21111;BME280;10713;51.912;4.494;2022-12-16T09:01:00;101466.34;;;11.76;100.00
21111;BME280;10713;51.912;4.494;2022-12-16T09:03:44;101469.84;;;12.03;100.00
21111;BME280;10713;51.912;4.494;2022-12-16T09:06:28;101476.84;;;12.53;100.00
21111;BME280;10713;51.912;4.494;2022-12-16T09:09:12;101478.22;;;12.87;100.00
21111;BME280;10713;51.912;4.494;2022-12-16T09:11:56;101484.00;;;13.42;100.00
21111;BME280;10713;51.912;4.494;2022-12-16T09:14:40;101481.91;;;14.13;100.00
21111;BME280;10713;51.912;4.494;2022-12-16T09:17:24;101477.50;;;14.91;100.00
21111;BME280;10713;51.912;4.494;2022-12-16T09:20:08;101491.81;;;15.80;100.00
21111;BME280;10713;51.912;4.494;2022-12-16T09:22:52;101496.41;;;16.28;100.00
21111;BME280;10713;51.912;4.494;2022-12-16T09:25:36;101496.59;;;16.74;100.00
21111;BME280;10713;51.912;4.494;2022-12-16T09:28:20;101502.81;;;16.91;100.00
21111;BME280;10713;51.912;4.494;2022-12-16T09:31:04;101504.56;;;17.07;89.18
21111;BME280;10713;51.912;4.494;2022-12-16T09:34:04;101495.56;;;17.56;96.46
21111;BME280;10713;51.912;4.494;2022-12-16T09:36:48;101498.38;;;17.99;99.39
21111;BME280;10713;51.912;4.494;2022-12-16T09:39:32;101502.47;;;17.90;90.84
21111;BME280;10713;51.912;4.494;2022-12-16T09:42:32;101510.91;;;18.13;78.70
21111;BME280;10713;51.912;4.494;2022-12-16T09:45:21;101509.78;;;18.17;85.88
21111;BME280;10713;51.912;4.494;2022-12-16T09:48:33;101522.09;;;18.19;68.26
21111;BME280;10713;51.912;4.494;2022-12-16T09:51:13;101520.00;;;18.24;82.02
21111;BME280;10713;51.912;4.494;2022-12-16T09:53:59;101527.84;;;18.42;77.24
21111;BME280;10713;51.912;4.494;2022-12-16T09:56:45;101533.41;;;18.67;68.84
21111;BME280;10713;51.912;4.494;2022-12-16T09:59:34;101534.25;;;19.11;55.57
21111;BME280;10713;51.912;4.494;2022-12-16T10:02:22;101536.53;;;19.03;60.34
21111;BME280;10713;51.912;4.494;2022-12-16T10:05:18;101551.56;;;19.05;53.08
21111;BME280;10713;51.912;4.494;2022-12-16T10:08:09;101542.78;;;18.16;56.23
21111;BME280;10713;51.912;4.494;2022-12-16T10:11:11;101554.66;;;17.18;55.19
21111;BME280;10713;51.912;4.494;2022-12-16T10:14:13;101563.88;;;16.11;56.24
21111;BME280;10713;51.912;4.494;2022-12-16T10:17:11;101555.19;;;14.58;81.31
21111;BME280;10713;51.912;4.494;2022-12-16T10:20:22;101567.22;;;13.16;81.15
21111;BME280;10713;51.912;4.494;2022-12-16T10:23:15;101576.66;;;12.01;98.08
21111;BME280;10713;51.912;4.494;2022-12-16T10:26:16;101582.06;;;11.13;96.50
21111;BME280;10713;51.912;4.494;2022-12-16T10:31:55;101585.44;;;10.22;100.00
21111;BME280;10713;51.912;4.494;2022-12-16T10:34:39;101580.78;;;9.97;100.00
21111;BME280;10713;51.912;4.494;2022-12-16T10:37:33;101582.19;;;9.75;100.00
21111;BME280;10713;51.912;4.494;2022-12-16T10:40:33;101589.00;;;9.47;100.00
21111;BME280;10713;51.912;4.494;2022-12-16T10:43:32;101585.09;;;9.25;100.00
21111;BME280;10713;51.912;4.494;2022-12-16T10:46:19;101584.91;;;9.34;100.00
21111;BME280;10713;51.912;4.494;2022-12-16T10:49:09;101584.47;;;9.14;100.00
21111;BME280;10713;51.912;4.494;2022-12-16T10:51:56;101590.03;;;8.98;100.00
21111;BME280;10713;51.912;4.494;2022-12-16T10:54:50;101592.84;;;8.91;100.00
21111;BME280;10713;51.912;4.494;2022-12-16T11:00:53;101592.66;;;9.00;100.00
21111;BME280;10713;51.912;4.494;2022-12-16T11:03:39;101596.88;;;9.09;100.00
21111;BME280;10713;51.912;4.494;2022-12-16T11:06:38;101585.31;;;9.14;100.00
21111;BME280;10713;51.912;4.494;2022-12-16T11:09:30;101586.97;;;9.20;100.00
21111;BME280;10713;51.912;4.494;2022-12-16T11:12:29;101595.31;;;8.98;100.00
21111;BME280;10713;51.912;4.494;2022-12-16T11:15:24;101597.06;;;8.99;100.00
21111;BME280;10713;51.912;4.494;2022-12-16T11:18:13;101593.59;;;8.97;100.00
21111;BME280;10713;51.912;4.494;2022-12-16T11:21:05;101594.50;;;8.96;100.00
21111;BME280;10713;51.912;4.494;2022-12-16T11:26:58;101598.91;;;8.94;100.00
21111;BME280;10713;51.912;4.494;2022-12-16T11:29:53;101598.31;;;8.82;100.00
21111;BME280;10713;51.912;4.494;2022-12-16T11:32:39;101594.47;;;8.53;100.00
21111;BME280;10713;51.912;4.494;2022-12-16T11:35:27;101593.88;;;8.39;100.00
21111;BME280;10713;51.912;4.494;2022-12-16T11:38:23;101591.31;;;8.31;100.00
21111;BME280;10713;51.912;4.494;2022-12-16T11:41:24;101590.63;;;8.21;100.00
21111;BME280;10713;51.912;4.494;2022-12-16T11:44:21;101587.22;;;8.16;100.00
21111;BME280;10713;51.912;4.494;2022-12-16T11:47:15;101583.09;;;8.01;100.00
21111;BME280;10713;51.912;4.494;2022-12-16T11:50:07;101578.91;;;7.86;100.00
21111;BME280;10713;51.912;4.494;2022-12-16T11:52:55;101569.41;;;7.79;100.00
21111;BME280;10713;51.912;4.494;2022-12-16T11:55:41;101573.72;;;7.85;100.00
21111;BME280;10713;51.912;4.494;2022-12-16T11:58:43;101575.47;;;7.83;100.00
21111;BME280;10713;51.912;4.494;2022-12-16T12:04:30;101581.97;;;7.60;100.00
21111;BME280;10713;51.912;4.494;2022-12-16T12:08:36;101598.53;;;7.67;100.00
21111;BME280;10713;51.912;4.494;2022-12-16T12:14:09;101594.19;;;7.64;100.00
21111;BME280;10713;51.912;4.494;2022-12-16T12:17:01;101604.75;;;7.60;100.00
21111;BME280;10713;51.912;4.494;2022-12-16T12:19:51;101608.38;;;7.51;100.00
21111;BME280;10713;51.912;4.494;2022-12-16T12:22:38;101613.06;;;7.29;100.00
21111;BME280;10713;51.912;4.494;2022-12-16T12:32:05;101616.84;;;7.10;100.00
21111;BME280;10713;51.912;4.494;2022-12-16T12:37:53;101615.28;;;6.93;100.00
21111;BME280;10713;51.912;4.494;2022-12-16T12:46:57;101624.34;;;6.63;100.00
21111;BME280;10713;51.912;4.494;2022-12-16T12:50:05;101627.06;;;6.54;100.00
21111;BME280;10713;51.912;4.494;2022-12-16T12:59:23;101632.41;;;6.45;100.00
21111;BME280;10713;51.912;4.494;2022-12-16T13:02:17;101639.44;;;6.40;100.00
21111;BME280;10713;51.912;4.494;2022-12-16T13:05:04;101640.34;;;6.39;100.00
21111;BME280;10713;51.912;4.494;2022-12-16T13:07:48;101630.72;;;6.39;100.00
21111;BME280;10713;51.912;4.494;2022-12-16T13:10:36;101639.38;;;6.46;100.00
21111;BME280;10713;51.912;4.494;2022-12-16T13:13:28;101639.34;;;6.49;100.00
21111;BME280;10713;51.912;4.494;2022-12-16T13:22:29;101635.94;;;6.42;100.00
21111;BME280;10713;51.912;4.494;2022-12-16T13:28:26;101636.75;;;6.47;100.00
21111;BME280;10713;51.912;4.494;2022-12-16T13:31:11;101640.22;;;6.51;100.00
21111;BME280;10713;51.912;4.494;2022-12-16T13:34:05;101641.91;;;6.58;100.00
21111;BME280;10713;51.912;4.494;2022-12-16T13:36:52;101645.47;;;6.51;100.00
21111;BME280;10713;51.912;4.494;2022-12-16T13:39:37;101641.16;;;6.41;100.00
21111;BME280;10713;51.912;4.494;2022-12-16T13:42:49;101649.88;;;6.46;100.00
21111;BME280;10713;51.912;4.494;2022-12-16T13:45:38;101639.47;;;6.38;100.00
21111;BME280;10713;51.912;4.494;2022-12-16T13:48:36;101643.81;;;6.38;100.00
21111;BME280;10713;51.912;4.494;2022-12-16T13:54:33;101653.47;;;6.36;100.00
21111;BME280;10713;51.912;4.494;2022-12-16T13:57:21;101653.53;;;6.28;100.00
21111;BME280;10713;51.912;4.494;2022-12-16T14:00:16;101672.69;;;6.35;100.00
21111;BME280;10713;51.912;4.494;2022-12-16T14:03:02;101672.78;;;6.27;100.00
21111;BME280;10713;51.912;4.494;2022-12-16T14:05:48;101678.09;;;6.19;100.00
21111;BME280;10713;51.912;4.494;2022-12-16T14:08:36;101686.78;;;6.23;100.00
21111;BME280;10713;51.912;4.494;2022-12-16T14:14:26;101684.22;;;6.18;100.00
21111;BME280;10713;51.912;4.494;2022-12-16T14:17:27;101692.88;;;6.23;100.00
21111;BME280;10713;51.912;4.494;2022-12-16T14:20:41;101715.84;;;6.98;100.00
21111;BME280;10713;51.912;4.494;2022-12-16T14:26:28;101698.81;;;7.33;100.00
21111;BME280;10713;51.912;4.494;2022-12-16T14:29:27;101708.25;;;7.48;100.00
21111;BME280;10713;51.912;4.494;2022-12-16T14:32:29;101711.19;;;7.22;100.00
21111;BME280;10713;51.912;4.494;2022-12-16T14:35:25;101715.75;;;7.06;100.00
21111;BME280;10713;51.912;4.494;2022-12-16T14:38:27;101719.31;;;7.02;100.00
21111;BME280;10713;51.912;4.494;2022-12-16T14:41:19;101724.34;;;7.22;100.00
21111;BME280;10713;51.912;4.494;2022-12-16T14:44:05;101717.41;;;7.16;100.00
21111;BME280;10713;51.912;4.494;2022-12-16T14:46:58;101731.50;;;7.08;100.00
21111;BME280;10713;51.912;4.494;2022-12-16T14:49:51;101734.88;;;7.17;100.00
21111;BME280;10713;51.912;4.494;2022-12-16T14:52:35;101738.19;;;7.35;100.00
21111;BME280;10713;51.912;4.494;2022-12-16T14:55:27;101747.06;;;7.25;100.00
21111;BME280;10713;51.912;4.494;2022-12-16T14:58:16;101741.00;;;7.19;100.00
21111;BME280;10713;51.912;4.494;2022-12-16T15:01:06;101749.66;;;7.28;100.00
21111;BME280;10713;51.912;4.494;2022-12-16T15:03:55;101758.53;;;7.16;100.00
21111;BME280;10713;51.912;4.494;2022-12-16T15:06:41;101761.13;;;7.17;100.00
21111;BME280;10713;51.912;4.494;2022-12-16T15:09:40;101764.56;;;7.26;100.00
21111;BME280;10713;51.912;4.494;2022-12-16T15:12:29;101761.19;;;7.11;100.00
21111;BME280;10713;51.912;4.494;2022-12-16T15:18:19;101772.28;;;6.45;100.00
21111;BME280;10713;51.912;4.494;2022-12-16T15:21:06;101776.88;;;6.13;100.00
21111;BME280;10713;51.912;4.494;2022-12-16T15:23:50;101786.59;;;5.95;100.00
21111;BME280;10713;51.912;4.494;2022-12-16T15:26:35;101778.78;;;5.74;100.00
21111;BME280;10713;51.912;4.494;2022-12-16T15:29:33;101788.44;;;5.59;100.00
21111;BME280;10713;51.912;4.494;2022-12-16T15:35:08;101793.78;;;5.30;100.00
21111;BME280;10713;51.912;4.494;2022-12-16T15:37:51;101786.81;;;5.17;100.00
21111;BME280;10713;51.912;4.494;2022-12-16T15:40:38;101792.97;;;5.04;100.00
21111;BME280;10713;51.912;4.494;2022-12-16T15:43:31;101798.19;;;4.90;100.00
21111;BME280;10713;51.912;4.494;2022-12-16T15:46:23;101803.41;;;4.82;100.00
21111;BME280;10713;51.912;4.494;2022-12-16T15:49:29;101802.53;;;4.74;100.00